createdAt,value
2022-08-03T00:01:36.596Z,21.17
2022-08-03T00:04:39.006Z,21.20
2022-08-03T00:07:41.215Z,21.16
2022-08-03T00:10:43.670Z,21.21
2022-08-03T00:13:45.788Z,21.22
2022-08-03T00:16:48.190Z,21.18
2022-08-03T00:19:50.309Z,21.13
2022-08-03T00:22:52.798Z,21.05
2022-08-03T00:25:54.927Z,20.90
2022-08-03T00:28:57.351Z,20.85
2022-08-03T00:32:00.583Z,20.78
2022-08-03T00:35:08.355Z,20.70
2022-08-03T00:38:11.983Z,20.67
2022-08-03T00:41:15.743Z,20.54
2022-08-03T00:44:17.967Z,20.47
2022-08-03T00:47:20.343Z,20.35
2022-08-03T00:50:24.274Z,20.38
2022-08-03T00:53:27.703Z,20.32
2022-08-03T00:56:29.863Z,20.26
2022-08-03T00:59:32.610Z,20.26
2022-08-03T01:02:34.821Z,20.20
2022-08-03T01:05:52.243Z,20.14
2022-08-03T01:09:19.403Z,19.95
2022-08-03T01:12:42.327Z,19.91
2022-08-03T01:15:49.408Z,19.81
2022-08-03T01:19:00.159Z,19.90
2022-08-03T01:22:05.077Z,19.94
2022-08-03T01:25:36.455Z,19.96
2022-08-03T01:28:57.478Z,19.92
2022-08-03T01:32:58.715Z,19.85
2022-08-03T01:35:45.154Z,19.74
2022-08-03T01:38:53.744Z,19.73
2022-08-03T01:42:06.104Z,19.77
2022-08-03T01:45:12.710Z,19.80
2022-08-03T01:48:18.631Z,19.77
2022-08-03T01:51:22.338Z,19.68
2022-08-03T01:54:25.995Z,19.72
2022-08-03T01:57:29.686Z,19.77
2022-08-03T02:00:33.064Z,19.72
2022-08-03T02:03:58.064Z,19.72
2022-08-03T02:07:03.428Z,19.72
2022-08-03T02:10:07.450Z,19.73
2022-08-03T02:13:10.565Z,19.72
2022-08-03T02:16:14.328Z,19.72
2022-08-03T02:19:18.129Z,19.71
2022-08-03T02:22:22.531Z,19.67
2022-08-03T02:25:24.790Z,19.68
2022-08-03T02:28:33.098Z,19.63
2022-08-03T02:31:37.834Z,19.54
2022-08-03T02:34:45.129Z,19.52
2022-08-03T02:37:52.221Z,19.46
2022-08-03T02:40:57.404Z,19.39
2022-08-03T02:44:07.111Z,19.24
2022-08-03T02:47:12.427Z,19.26
2022-08-03T02:50:16.770Z,19.16
2022-08-03T02:53:21.322Z,19.12
2022-08-03T02:56:27.354Z,19.12
2022-08-03T02:59:31.392Z,19.12
2022-08-03T03:02:34.940Z,19.09
2022-08-03T03:05:54.490Z,19.02
2022-08-03T03:09:00.383Z,19.03
2022-08-03T03:12:03.229Z,18.94
2022-08-03T03:15:06.620Z,18.92
2022-08-03T03:18:10.091Z,18.88
2022-08-03T03:21:14.307Z,18.85
2022-08-03T03:24:17.072Z,18.80
2022-08-03T03:27:19.412Z,18.81
2022-08-03T03:30:23.723Z,18.81
2022-08-03T03:33:28.408Z,18.80
2022-08-03T03:36:31.137Z,18.75
2022-08-03T03:39:33.513Z,18.77
2022-08-03T03:42:36.172Z,18.81
2022-08-03T03:45:40.582Z,18.72
2022-08-03T03:48:44.090Z,18.68
2022-08-03T03:51:46.238Z,18.71
2022-08-03T03:54:48.661Z,18.73
2022-08-03T03:57:50.983Z,18.75
2022-08-03T04:00:53.932Z,18.72
2022-08-03T04:03:56.573Z,18.70
2022-08-03T04:07:17.302Z,18.69
2022-08-03T04:10:41.648Z,18.71
2022-08-03T04:13:51.640Z,18.76
2022-08-03T04:17:01.804Z,18.77
2022-08-03T04:20:05.483Z,18.76
2022-08-03T04:23:13.721Z,18.75
2022-08-03T04:26:21.516Z,18.75
2022-08-03T04:29:26.036Z,18.78
2022-08-03T04:32:29.710Z,18.77
2022-08-03T04:35:59.782Z,18.72
2022-08-03T04:39:08.374Z,18.73
2022-08-03T04:42:13.968Z,18.77
2022-08-03T04:45:18.425Z,18.80
2022-08-03T04:48:21.224Z,18.86
2022-08-03T04:51:23.665Z,18.88
2022-08-03T04:54:26.079Z,18.89
2022-08-03T04:57:28.236Z,18.92
2022-08-03T05:00:30.656Z,18.96
2022-08-03T05:03:32.864Z,19.04
2022-08-03T05:06:35.439Z,19.06
2022-08-03T05:09:52.185Z,19.12
2022-08-03T05:12:55.353Z,19.20
2022-08-03T05:15:57.677Z,19.28
2022-08-03T05:19:00.064Z,19.36
2022-08-03T05:22:02.243Z,19.40
2022-08-03T05:25:05.127Z,19.50
2022-08-03T05:28:07.334Z,19.55
2022-08-03T05:31:09.779Z,19.63
2022-08-03T05:34:11.895Z,19.76
2022-08-03T05:37:14.330Z,19.86
2022-08-03T05:40:16.750Z,19.93
2022-08-03T05:43:19.234Z,20.02
2022-08-03T05:46:24.866Z,20.10
2022-08-03T05:49:27.424Z,20.20
2022-08-03T05:52:29.604Z,20.32
2022-08-03T05:55:32.298Z,20.39
2022-08-03T05:58:34.427Z,20.47
2022-08-03T06:01:37.036Z,20.58
2022-08-03T06:04:39.613Z,20.71
2022-08-03T06:07:41.865Z,20.86
2022-08-03T06:10:44.290Z,21.02
2022-08-03T06:13:46.484Z,21.13
2022-08-03T06:16:48.848Z,21.29
2022-08-03T06:19:53.546Z,21.49
2022-08-03T06:23:00.223Z,21.57
2022-08-03T06:26:03.430Z,21.70
2022-08-03T06:29:06.006Z,21.82
2022-08-03T06:32:12.075Z,22.00
2022-08-03T06:35:14.552Z,22.07
2022-08-03T06:38:16.774Z,22.19
2022-08-03T06:41:19.164Z,22.32
2022-08-03T06:44:21.310Z,22.36
2022-08-03T06:47:23.698Z,22.48
2022-08-03T06:50:26.291Z,22.57
2022-08-03T06:53:28.816Z,22.65
2022-08-03T06:56:30.975Z,22.68
2022-08-03T07:00:09.093Z,22.73
2022-08-03T07:02:58.318Z,22.85
2022-08-03T07:06:01.202Z,22.95
2022-08-03T07:09:03.509Z,23.07
2022-08-03T07:12:06.670Z,23.12
2022-08-03T07:15:09.177Z,23.24
2022-08-03T07:18:29.250Z,23.42
2022-08-03T07:21:32.261Z,23.68
2022-08-03T07:24:35.004Z,23.81
2022-08-03T07:27:38.242Z,23.96
2022-08-03T07:30:40.843Z,24.17
2022-08-03T07:33:42.964Z,24.42
2022-08-03T07:36:45.513Z,24.71
2022-08-03T07:39:47.828Z,24.98
2022-08-03T07:42:53.400Z,25.29
2022-08-03T07:45:55.780Z,25.60
2022-08-03T07:48:58.275Z,25.93
2022-08-03T07:52:19.339Z,26.16
2022-08-03T07:55:25.050Z,26.49
2022-08-03T07:58:27.160Z,26.73
2022-08-03T08:01:30.295Z,26.92
2022-08-03T08:04:32.879Z,27.26
2022-08-03T08:07:35.028Z,27.57
2022-08-03T08:10:37.621Z,27.83
2022-08-03T08:13:39.753Z,27.95
2022-08-03T08:16:42.524Z,28.38
2022-08-03T08:19:51.457Z,28.67
2022-08-03T08:22:56.912Z,28.99
2022-08-03T08:25:59.377Z,29.28
2022-08-03T08:29:01.734Z,29.60
2022-08-03T08:32:04.237Z,29.85
2022-08-03T08:35:09.821Z,30.15
2022-08-03T08:38:12.128Z,30.52
2022-08-03T08:41:15.651Z,30.81
2022-08-03T08:44:17.774Z,30.94
2022-08-03T08:47:26.039Z,31.42
2022-08-03T08:50:28.498Z,31.66
2022-08-03T08:53:33.206Z,31.25
2022-08-03T08:56:37.101Z,31.63
2022-08-03T08:59:49.051Z,31.47
2022-08-03T09:02:52.530Z,31.97
2022-08-03T09:05:56.419Z,32.25
2022-08-03T09:08:58.710Z,32.44
2022-08-03T09:12:20.872Z,32.52
2022-08-03T09:15:26.632Z,32.68
2022-08-03T09:18:32.591Z,33.08
2022-08-03T09:21:35.308Z,33.22
2022-08-03T09:24:41.558Z,33.47
2022-08-03T09:27:45.945Z,33.71
2022-08-03T09:30:59.755Z,33.82
2022-08-03T09:34:06.885Z,33.55
2022-08-03T09:37:15.991Z,33.36
2022-08-03T09:40:34.533Z,33.48
2022-08-03T09:43:47.061Z,33.69
2022-08-03T09:46:58.579Z,33.55
2022-08-03T09:50:04.163Z,33.46
2022-08-03T09:53:06.316Z,33.53
2022-08-03T09:56:34.285Z,33.56
2022-08-03T09:59:33.466Z,33.78
2022-08-03T10:02:36.979Z,33.83
2022-08-03T10:05:44.517Z,33.84
2022-08-03T10:08:47.173Z,33.93
2022-08-03T10:11:49.721Z,33.93
2022-08-03T10:14:52.629Z,34.02
2022-08-03T10:17:55.019Z,33.81
2022-08-03T10:21:06.295Z,33.99
2022-08-03T10:24:10.688Z,34.03
2022-08-03T10:27:14.866Z,33.72
2022-08-03T10:30:17.634Z,33.49
2022-08-03T10:33:50.277Z,33.10
2022-08-03T10:36:53.644Z,32.48
2022-08-03T10:39:57.997Z,32.65
2022-08-03T10:43:09.919Z,32.76
2022-08-03T10:46:14.215Z,32.96
2022-08-03T10:49:33.547Z,33.18
2022-08-03T10:52:56.707Z,33.45
2022-08-03T10:56:18.179Z,33.44
2022-08-03T10:59:46.493Z,33.38
2022-08-03T11:03:08.949Z,33.40
2022-08-03T11:06:21.791Z,33.25
2022-08-03T11:09:24.249Z,33.56
2022-08-03T11:12:32.734Z,33.45
2022-08-03T11:15:35.994Z,33.47
2022-08-03T11:18:56.214Z,33.26
2022-08-03T11:22:00.214Z,33.05
2022-08-03T11:25:02.598Z,33.09
2022-08-03T11:28:30.700Z,33.17
2022-08-03T11:31:51.884Z,33.06
2022-08-03T11:35:06.754Z,33.02
2022-08-03T11:38:10.558Z,32.89
2022-08-03T11:41:33.006Z,32.88
2022-08-03T11:44:47.486Z,33.01
2022-08-03T11:47:54.492Z,32.96
2022-08-03T11:50:56.898Z,32.90
2022-08-03T11:54:04.639Z,32.96
2022-08-03T11:57:06.926Z,33.15
2022-08-03T12:00:26.210Z,32.95
2022-08-03T12:03:33.034Z,32.63
2022-08-03T12:06:55.072Z,32.70
2022-08-03T12:10:14.295Z,32.70
2022-08-03T12:14:33.107Z,32.71
2022-08-03T12:16:40.043Z,32.90
2022-08-03T12:19:43.873Z,32.84
2022-08-03T12:22:46.303Z,32.89
2022-08-03T12:25:49.544Z,32.83
2022-08-03T12:28:52.247Z,32.52
2022-08-03T12:31:56.144Z,32.53
2022-08-03T12:35:01.252Z,32.59
2022-08-03T12:38:04.247Z,32.78
2022-08-03T12:41:13.525Z,32.73
2022-08-03T12:44:15.702Z,32.54
2022-08-03T12:47:18.258Z,32.43
2022-08-03T12:50:28.003Z,32.30
2022-08-03T12:53:30.428Z,32.24
2022-08-03T12:56:32.784Z,32.23
2022-08-03T12:59:40.710Z,32.20
2022-08-03T13:02:46.474Z,32.31
2022-08-03T13:05:49.128Z,32.45
2022-08-03T13:09:03.667Z,32.57
2022-08-03T13:12:10.513Z,32.66
2022-08-03T13:15:12.660Z,32.54
2022-08-03T13:18:17.329Z,32.60
2022-08-03T13:21:21.230Z,32.54
2022-08-03T13:24:23.868Z,32.55
2022-08-03T13:28:11.118Z,32.55
2022-08-03T13:30:49.726Z,32.41
2022-08-03T13:33:51.884Z,32.50
2022-08-03T13:37:10.444Z,32.51
2022-08-03T13:40:12.647Z,32.29
2022-08-03T13:43:17.182Z,32.32
2022-08-03T13:46:20.298Z,32.32
2022-08-03T13:49:22.927Z,32.27
2022-08-03T13:52:25.160Z,32.26
2022-08-03T13:55:27.662Z,32.40
2022-08-03T13:58:29.798Z,32.43
2022-08-03T14:01:54.185Z,32.53
2022-08-03T14:04:54.855Z,32.58
2022-08-03T14:07:58.293Z,32.59
2022-08-03T14:11:07.491Z,32.57
2022-08-03T14:14:09.690Z,32.44
2022-08-03T14:17:12.118Z,32.42
2022-08-03T14:20:37.359Z,32.20
2022-08-03T14:23:38.440Z,32.21
2022-08-03T14:26:40.551Z,32.20
2022-08-03T14:29:43.040Z,32.23
2022-08-03T14:32:47.288Z,32.25
2022-08-03T14:35:50.556Z,32.19
2022-08-03T14:38:52.740Z,32.24
2022-08-03T14:41:55.232Z,32.33
2022-08-03T14:45:02.430Z,32.27
2022-08-03T14:50:27.908Z,32.27
2022-08-03T14:51:29.883Z,32.25
2022-08-03T14:54:34.257Z,32.27
2022-08-03T14:57:36.445Z,32.30
2022-08-03T15:00:38.904Z,32.31
2022-08-03T15:03:41.158Z,32.31
2022-08-03T15:06:43.592Z,32.32
2022-08-03T15:09:50.698Z,32.25
2022-08-03T15:12:55.124Z,32.29
2022-08-03T15:15:57.890Z,32.17
2022-08-03T15:19:00.868Z,32.05
2022-08-03T15:22:03.157Z,32.08
2022-08-03T15:26:01.712Z,32.06
2022-08-03T15:28:28.344Z,32.00
2022-08-03T15:31:30.757Z,31.90
2022-08-03T15:34:33.059Z,31.85
2022-08-03T15:37:35.571Z,31.78
2022-08-03T15:40:37.998Z,31.64
2022-08-03T15:43:41.525Z,31.59
2022-08-03T15:46:53.075Z,31.63
2022-08-03T15:49:55.582Z,31.63
2022-08-03T15:52:57.732Z,31.62
2022-08-03T15:56:00.849Z,31.52
2022-08-03T15:59:12.303Z,31.44
2022-08-03T16:02:16.457Z,31.49
2022-08-03T16:05:18.844Z,31.50
2022-08-03T16:08:21.145Z,31.48
2022-08-03T16:11:23.626Z,31.44
2022-08-03T16:14:33.357Z,31.42
2022-08-03T16:17:41.106Z,31.42
2022-08-03T16:20:44.760Z,31.43
2022-08-03T16:23:48.155Z,31.34
2022-08-03T16:26:50.270Z,31.30
2022-08-03T16:29:52.826Z,31.20
2022-08-03T16:32:55.077Z,31.12
2022-08-03T16:35:57.462Z,30.96
2022-08-03T16:38:59.617Z,30.84
2022-08-03T16:42:02.313Z,30.85
2022-08-03T16:45:06.386Z,30.82
2022-08-03T16:48:08.815Z,30.82
2022-08-03T16:51:10.926Z,30.78
2022-08-03T16:54:14.065Z,30.79
2022-08-03T16:57:29.740Z,30.76
2022-08-03T17:00:41.236Z,30.67
2022-08-03T17:04:01.793Z,30.60
2022-08-03T17:07:06.946Z,30.53
2022-08-03T17:10:12.603Z,30.46
2022-08-03T17:13:21.755Z,30.42
2022-08-03T17:16:25.278Z,30.39
2022-08-03T17:19:30.730Z,30.36
2022-08-03T17:22:39.263Z,30.32
2022-08-03T17:26:01.994Z,30.27
2022-08-03T17:29:11.223Z,30.22
2022-08-03T17:32:21.169Z,30.14
2022-08-03T17:35:23.986Z,30.11
2022-08-03T17:38:31.846Z,29.99
2022-08-03T17:41:34.055Z,29.96
2022-08-03T17:44:46.030Z,29.88
2022-08-03T17:47:57.801Z,29.79
2022-08-03T17:51:06.646Z,29.66
2022-08-03T17:54:27.143Z,29.55
2022-08-03T17:58:02.310Z,29.40
2022-08-03T18:02:03.319Z,29.28
2022-08-03T18:08:32.265Z,28.96
2022-08-03T18:11:37.085Z,28.80
2022-08-03T18:14:57.331Z,28.67
2022-08-03T18:18:10.926Z,28.62
2022-08-03T18:21:17.054Z,28.56
2022-08-03T18:24:20.690Z,28.43
2022-08-03T18:27:42.660Z,28.33
2022-08-03T18:30:54.776Z,28.26
2022-08-03T18:37:25.104Z,28.08
2022-08-03T18:40:28.451Z,28.00
2022-08-03T18:43:46.744Z,27.86
2022-08-03T18:47:22.012Z,27.78
2022-08-03T18:50:39.147Z,27.70
2022-08-03T18:57:07.372Z,27.56
2022-08-03T19:00:24.268Z,27.43
2022-08-03T19:03:41.274Z,27.34
2022-08-03T19:06:49.028Z,27.26
2022-08-03T19:09:58.285Z,27.08
2022-08-03T19:13:14.108Z,27.00
2022-08-03T19:16:38.730Z,26.91
2022-08-03T19:19:44.883Z,26.84
2022-08-03T19:22:48.249Z,26.73
2022-08-03T19:25:51.191Z,26.67
2022-08-03T19:28:57.051Z,26.59
2022-08-03T19:32:02.000Z,26.54
2022-08-03T19:35:09.431Z,26.48
2022-08-03T19:38:17.411Z,26.39
2022-08-03T19:41:41.947Z,26.36
2022-08-03T19:44:50.464Z,26.25
2022-08-03T19:48:08.026Z,26.18
2022-08-03T19:51:12.696Z,26.09
2022-08-03T19:54:16.079Z,26.00
2022-08-03T19:57:19.850Z,25.94
2022-08-03T20:00:26.537Z,25.92
2022-08-03T20:03:43.010Z,25.88
2022-08-03T20:06:47.019Z,25.81
2022-08-03T20:09:54.505Z,25.74
2022-08-03T20:12:59.539Z,25.64
2022-08-03T20:16:02.014Z,25.57
2022-08-03T20:19:04.269Z,25.49
2022-08-03T20:22:17.721Z,25.42
2022-08-03T20:25:38.905Z,25.34
2022-08-03T20:28:49.825Z,25.26
2022-08-03T20:31:53.917Z,25.22
2022-08-03T20:38:27.210Z,25.12
2022-08-03T20:41:30.734Z,25.11
2022-08-03T20:44:34.166Z,25.20
2022-08-03T20:47:50.226Z,25.30
2022-08-03T20:50:55.344Z,25.39
2022-08-03T20:54:01.693Z,25.45
2022-08-03T20:57:10.059Z,25.46
2022-08-03T21:00:13.895Z,25.51
2022-08-03T21:03:16.792Z,25.54
2022-08-03T21:09:52.189Z,25.61
2022-08-03T21:12:58.400Z,28.16
2022-08-03T21:13:04.167Z,29.13
2022-08-03T21:13:07.169Z,25.18
2022-08-03T21:13:08.461Z,27.61
2022-08-03T21:13:13.764Z,25.61
2022-08-03T21:13:13.804Z,25.59
2022-08-03T21:16:21.648Z,25.59
2022-08-03T21:19:29.612Z,25.53
2022-08-03T21:22:35.486Z,25.45
2022-08-03T21:25:40.432Z,25.33
2022-08-03T21:28:43.042Z,25.23
2022-08-03T21:31:46.657Z,25.07
2022-08-03T21:34:50.930Z,24.89
2022-08-03T21:38:12.975Z,24.78
2022-08-03T21:41:15.122Z,24.64
2022-08-03T21:44:18.421Z,24.56
2022-08-03T21:47:37.129Z,24.49
2022-08-03T21:50:41.461Z,24.38
2022-08-03T21:54:03.560Z,24.34
2022-08-03T21:57:17.379Z,24.29
2022-08-03T22:00:21.635Z,24.18
2022-08-03T22:03:28.098Z,24.10
2022-08-03T22:06:30.780Z,24.00
2022-08-03T22:09:35.209Z,23.98
2022-08-03T22:12:37.825Z,23.92
2022-08-03T22:15:41.012Z,23.90
2022-08-03T22:18:45.179Z,23.85
2022-08-03T22:21:48.820Z,23.78
2022-08-03T22:24:56.447Z,23.80
2022-08-03T22:28:02.139Z,23.75
2022-08-03T22:31:37.670Z,23.75
2022-08-03T22:34:28.409Z,23.72
2022-08-03T22:37:32.198Z,23.67
2022-08-03T22:40:37.198Z,23.64
2022-08-03T22:43:39.709Z,23.61
2022-08-03T22:46:43.295Z,23.52
2022-08-03T22:49:46.369Z,23.47
2022-08-03T22:53:09.630Z,23.43
2022-08-03T22:56:12.438Z,23.40
2022-08-03T22:59:41.100Z,23.28
2022-08-03T23:02:40.390Z,23.24
2022-08-03T23:06:01.087Z,23.09
2022-08-03T23:09:10.817Z,23.04
2022-08-03T23:12:17.093Z,22.97
2022-08-03T23:15:19.573Z,22.95
2022-08-03T23:18:23.360Z,22.92
2022-08-03T23:22:00.561Z,22.89
2022-08-03T23:24:52.133Z,22.81
2022-08-03T23:28:05.173Z,22.71
2022-08-03T23:31:08.946Z,22.63
2022-08-03T23:34:32.480Z,22.53
2022-08-03T23:38:04.760Z,22.37
2022-08-03T23:40:59.634Z,22.35
2022-08-03T23:44:04.388Z,22.29
2022-08-03T23:47:06.554Z,22.25
2022-08-03T23:50:08.976Z,22.34
2022-08-03T23:53:23.214Z,22.52
2022-08-03T23:56:49.679Z,22.65
